sensor_id;sensor_type;location;lat;lon;timestamp;pressure;altitude;pressure_sealevel;temperature;humidity
58771;BME280;44539;42.962;1.596;2022-09-01T07:20:48;97152.47;;;16.14;95.88
58771;BME280;44539;42.962;1.596;2022-09-01T07:23:15;97142.13;;;16.31;90.33
58771;BME280;44539;42.962;1.596;2022-09-01T07:25:49;97141.69;;;16.34;93.17
58771;BME280;44539;42.962;1.596;2022-09-01T07:28:20;97135.69;;;16.45;85.36
58771;BME280;44539;42.962;1.596;2022-09-01T07:30:50;97138.06;;;16.67;86.46
58771;BME280;44539;42.962;1.596;2022-09-01T07:33:18;97136.97;;;16.81;85.40
58771;BME280;44539;42.962;1.596;2022-09-01T07:35:48;97137.06;;;17.00;85.70
58771;BME280;44539;42.962;1.596;2022-09-01T07:38:14;97150.31;;;16.94;87.60
58771;BME280;44539;42.962;1.596;2022-09-01T07:40:44;97133.69;;;17.11;80.95
58771;BME280;44539;42.962;1.596;2022-09-01T07:43:19;97137.72;;;17.27;85.90
58771;BME280;44539;42.962;1.596;2022-09-01T07:45:48;97136.38;;;17.36;80.98
58771;BME280;44539;42.962;1.596;2022-09-01T07:48:16;97130.97;;;17.43;84.02
58771;BME280;44539;42.962;1.596;2022-09-01T07:50:45;97137.06;;;17.57;84.57
58771;BME280;44539;42.962;1.596;2022-09-01T07:53:21;97122.16;;;17.61;80.27
58771;BME280;44539;42.962;1.596;2022-09-01T07:55:52;97120.28;;;17.86;78.59
58771;BME280;44539;42.962;1.596;2022-09-01T07:58:21;97124.22;;;17.84;77.14
58771;BME280;44539;42.962;1.596;2022-09-01T08:00:47;97119.91;;;18.01;76.80
58771;BME280;44539;42.962;1.596;2022-09-01T08:03:15;97118.56;;;18.10;78.64
58771;BME280;44539;42.962;1.596;2022-09-01T08:05:40;97117.16;;;18.08;79.71
58771;BME280;44539;42.962;1.596;2022-09-01T08:08:06;97115.25;;;17.90;77.56
58771;BME280;44539;42.962;1.596;2022-09-01T08:10:32;97123.91;;;17.92;79.34
58771;BME280;44539;42.962;1.596;2022-09-01T08:12:57;97125.50;;;18.00;82.82
58771;BME280;44539;42.962;1.596;2022-09-01T08:15:23;97122.34;;;18.03;83.35
58771;BME280;44539;42.962;1.596;2022-09-01T08:17:49;97115.13;;;18.22;80.00
58771;BME280;44539;42.962;1.596;2022-09-01T08:20:14;97106.31;;;18.33;81.57
58771;BME280;44539;42.962;1.596;2022-09-01T08:22:40;97102.69;;;18.39;81.18
58771;BME280;44539;42.962;1.596;2022-09-01T08:25:07;97107.50;;;18.37;81.82
58771;BME280;44539;42.962;1.596;2022-09-01T08:27:34;97095.44;;;18.58;81.52
58771;BME280;44539;42.962;1.596;2022-09-01T08:30:02;97094.56;;;18.76;75.74
58771;BME280;44539;42.962;1.596;2022-09-01T08:32:29;97101.06;;;18.87;78.09
58771;BME280;44539;42.962;1.596;2022-09-01T08:34:55;97106.47;;;18.98;78.39
58771;BME280;44539;42.962;1.596;2022-09-01T08:37:21;97112.22;;;19.02;77.54
58771;BME280;44539;42.962;1.596;2022-09-01T08:39:47;97109.59;;;19.14;77.08
58771;BME280;44539;42.962;1.596;2022-09-01T08:42:32;97106.97;;;19.07;78.29
58771;BME280;44539;42.962;1.596;2022-09-01T08:45:08;97105.13;;;19.08;76.88
58771;BME280;44539;42.962;1.596;2022-09-01T08:47:37;97100.44;;;19.15;74.21
58771;BME280;44539;42.962;1.596;2022-09-01T08:50:03;97108.50;;;19.15;77.77
58771;BME280;44539;42.962;1.596;2022-09-01T08:57:37;97103.16;;;19.38;78.23
58771;BME280;44539;42.962;1.596;2022-09-01T09:00:06;97090.06;;;19.66;77.23
58771;BME280;44539;42.962;1.596;2022-09-01T09:16:12;97083.66;;;20.31;72.01
58771;BME280;44539;42.962;1.596;2022-09-01T09:18:53;97078.25;;;20.43;74.49
58771;BME280;44539;42.962;1.596;2022-09-01T09:21:37;97081.84;;;20.48;71.35
58771;BME280;44539;42.962;1.596;2022-09-01T09:24:23;97072.13;;;20.47;69.37
58771;BME280;44539;42.962;1.596;2022-09-01T09:26:53;97077.50;;;20.59;70.30
58771;BME280;44539;42.962;1.596;2022-09-01T09:29:19;97078.44;;;20.82;71.61
58771;BME280;44539;42.962;1.596;2022-09-01T09:31:46;97068.66;;;20.92;71.65
58771;BME280;44539;42.962;1.596;2022-09-01T09:37:00;97062.88;;;21.17;74.17
58771;BME280;44539;42.962;1.596;2022-09-01T09:39:26;97061.16;;;21.28;73.33
58771;BME280;44539;42.962;1.596;2022-09-01T09:42:09;97047.66;;;21.28;68.93
58771;BME280;44539;42.962;1.596;2022-09-01T09:44:43;97045.44;;;21.42;66.57
58771;BME280;44539;42.962;1.596;2022-09-01T09:47:12;97046.09;;;21.49;67.11
58771;BME280;44539;42.962;1.596;2022-09-01T09:52:36;97045.16;;;21.77;64.15
58771;BME280;44539;42.962;1.596;2022-09-01T09:55:26;97045.16;;;21.99;64.41
58771;BME280;44539;42.962;1.596;2022-09-01T09:57:57;97033.91;;;22.08;64.39
58771;BME280;44539;42.962;1.596;2022-09-01T10:00:29;97026.25;;;22.21;62.37
58771;BME280;44539;42.962;1.596;2022-09-01T10:03:07;97018.66;;;22.40;64.92
58771;BME280;44539;42.962;1.596;2022-09-01T10:05:41;97017.47;;;22.58;66.38
58771;BME280;44539;42.962;1.596;2022-09-01T10:08:43;97016.34;;;22.81;67.10
58771;BME280;44539;42.962;1.596;2022-09-01T10:11:34;97016.63;;;22.85;66.75
58771;BME280;44539;42.962;1.596;2022-09-01T10:13:56;97012.63;;;22.93;66.80
58771;BME280;44539;42.962;1.596;2022-09-01T10:16:28;97005.19;;;22.78;65.49
58771;BME280;44539;42.962;1.596;2022-09-01T10:18:57;97007.75;;;22.90;68.58
58771;BME280;44539;42.962;1.596;2022-09-01T10:21:36;96998.44;;;23.08;66.78
58771;BME280;44539;42.962;1.596;2022-09-01T10:26:52;97000.06;;;23.09;66.36
58771;BME280;44539;42.962;1.596;2022-09-01T10:29:28;97001.00;;;23.24;67.28
58771;BME280;44539;42.962;1.596;2022-09-01T10:31:56;96987.78;;;23.33;67.93
58771;BME280;44539;42.962;1.596;2022-09-01T10:34:22;96990.31;;;23.50;63.91
58771;BME280;44539;42.962;1.596;2022-09-01T10:36:49;96987.31;;;23.47;66.30
58771;BME280;44539;42.962;1.596;2022-09-01T10:39:17;96993.59;;;23.57;62.65
58771;BME280;44539;42.962;1.596;2022-09-01T10:41:56;96986.00;;;23.54;64.21
58771;BME280;44539;42.962;1.596;2022-09-01T10:46:57;96980.66;;;23.64;65.15
58771;BME280;44539;42.962;1.596;2022-09-01T10:51:56;96982.91;;;23.83;66.67
58771;BME280;44539;42.962;1.596;2022-09-01T10:57:08;96981.63;;;23.96;66.57
58771;BME280;44539;42.962;1.596;2022-09-01T10:59:35;96975.47;;;24.16;65.25
58771;BME280;44539;42.962;1.596;2022-09-01T11:02:19;96969.75;;;24.17;65.41
58771;BME280;44539;42.962;1.596;2022-09-01T11:09:45;96969.50;;;24.19;64.13
58771;BME280;44539;42.962;1.596;2022-09-01T11:12:47;96966.53;;;24.25;64.57
58771;BME280;44539;42.962;1.596;2022-09-01T11:20:35;96961.13;;;24.31;63.92
58771;BME280;44539;42.962;1.596;2022-09-01T11:23:25;96960.56;;;24.34;63.73
58771;BME280;44539;42.962;1.596;2022-09-01T11:25:54;96956.28;;;24.69;62.54
58771;BME280;44539;42.962;1.596;2022-09-01T11:31:10;96949.78;;;24.70;63.90
58771;BME280;44539;42.962;1.596;2022-09-01T11:36:29;96941.38;;;24.66;62.88
58771;BME280;44539;42.962;1.596;2022-09-01T11:39:03;96939.75;;;24.91;62.71
58771;BME280;44539;42.962;1.596;2022-09-01T11:41:33;96934.28;;;24.96;60.75
58771;BME280;44539;42.962;1.596;2022-09-01T11:44:01;96925.59;;;25.04;61.29
58771;BME280;44539;42.962;1.596;2022-09-01T11:46:33;96933.47;;;25.16;60.56
58771;BME280;44539;42.962;1.596;2022-09-01T11:49:06;96929.09;;;25.30;59.96
58771;BME280;44539;42.962;1.596;2022-09-01T11:51:45;96925.03;;;25.07;60.08
58771;BME280;44539;42.962;1.596;2022-09-01T11:54:12;96923.66;;;25.30;60.76
58771;BME280;44539;42.962;1.596;2022-09-01T11:56:38;96919.09;;;25.20;60.27
58771;BME280;44539;42.962;1.596;2022-09-01T11:59:04;96917.16;;;25.16;59.88
58771;BME280;44539;42.962;1.596;2022-09-01T12:03:55;96919.03;;;25.46;59.72
58771;BME280;44539;42.962;1.596;2022-09-01T12:06:26;96916.47;;;25.70;58.90
58771;BME280;44539;42.962;1.596;2022-09-01T12:09:00;96925.47;;;25.65;57.89
58771;BME280;44539;42.962;1.596;2022-09-01T12:11:29;96925.75;;;25.69;58.37
58771;BME280;44539;42.962;1.596;2022-09-01T12:14:07;96911.38;;;25.58;57.64
58771;BME280;44539;42.962;1.596;2022-09-01T12:16:35;96914.38;;;25.57;57.71
58771;BME280;44539;42.962;1.596;2022-09-01T12:19:03;96914.59;;;25.60;58.38
58771;BME280;44539;42.962;1.596;2022-09-01T12:21:35;96909.34;;;25.90;57.12
58771;BME280;44539;42.962;1.596;2022-09-01T12:24:20;96909.56;;;26.03;57.02
58771;BME280;44539;42.962;1.596;2022-09-01T12:26:48;96907.81;;;25.63;57.44
58771;BME280;44539;42.962;1.596;2022-09-01T12:29:16;96905.03;;;25.78;57.65
58771;BME280;44539;42.962;1.596;2022-09-01T12:31:45;96914.16;;;26.08;56.85
58771;BME280;44539;42.962;1.596;2022-09-01T12:39:54;96908.13;;;26.56;55.49
58771;BME280;44539;42.962;1.596;2022-09-01T12:42:28;96908.69;;;26.58;54.82
58771;BME280;44539;42.962;1.596;2022-09-01T12:44:58;96899.75;;;26.47;55.21
58771;BME280;44539;42.962;1.596;2022-09-01T12:52:49;96890.13;;;26.20;55.01
58771;BME280;44539;42.962;1.596;2022-09-01T12:55:23;96888.25;;;26.16;56.10
58771;BME280;44539;42.962;1.596;2022-09-01T12:57:54;96892.63;;;26.51;56.69
58771;BME280;44539;42.962;1.596;2022-09-01T13:00:26;96887.09;;;26.66;54.78
58771;BME280;44539;42.962;1.596;2022-09-01T13:05:35;96886.53;;;26.70;54.99
58771;BME280;44539;42.962;1.596;2022-09-01T13:08:02;96876.03;;;26.47;55.23
58771;BME280;44539;42.962;1.596;2022-09-01T13:10:43;96882.72;;;26.31;55.09
58771;BME280;44539;42.962;1.596;2022-09-01T13:13:11;96875.00;;;26.78;54.36
58771;BME280;44539;42.962;1.596;2022-09-01T13:15:38;96876.44;;;26.70;54.43
58771;BME280;44539;42.962;1.596;2022-09-01T13:18:04;96872.09;;;26.98;54.11
58771;BME280;44539;42.962;1.596;2022-09-01T13:20:29;96870.75;;;27.20;53.09
58771;BME280;44539;42.962;1.596;2022-09-01T13:22:55;96878.13;;;26.95;53.63
58771;BME280;44539;42.962;1.596;2022-09-01T13:25:22;96866.47;;;27.14;53.88
58771;BME280;44539;42.962;1.596;2022-09-01T13:27:49;96869.06;;;27.00;53.32
58771;BME280;44539;42.962;1.596;2022-09-01T13:30:17;96866.69;;;27.22;52.81
58771;BME280;44539;42.962;1.596;2022-09-01T13:32:44;96860.31;;;27.32;52.27
58771;BME280;44539;42.962;1.596;2022-09-01T13:35:12;96860.94;;;27.24;52.83
58771;BME280;44539;42.962;1.596;2022-09-01T13:37:39;96854.56;;;27.34;52.06
58771;BME280;44539;42.962;1.596;2022-09-01T13:40:05;96856.00;;;27.26;52.51
58771;BME280;44539;42.962;1.596;2022-09-01T13:42:42;96855.03;;;27.41;51.76
58771;BME280;44539;42.962;1.596;2022-09-01T13:45:09;96853.38;;;27.16;51.89
58771;BME280;44539;42.962;1.596;2022-09-01T13:47:38;96853.19;;;26.78;52.29
58771;BME280;44539;42.962;1.596;2022-09-01T13:50:04;96860.41;;;27.22;52.74
58771;BME280;44539;42.962;1.596;2022-09-01T13:52:30;96850.09;;;26.89;51.96
58771;BME280;44539;42.962;1.596;2022-09-01T13:54:55;96844.00;;;27.51;52.15
58771;BME280;44539;42.962;1.596;2022-09-01T13:57:20;96844.41;;;27.39;50.95
58771;BME280;44539;42.962;1.596;2022-09-01T13:59:46;96843.88;;;27.37;51.39
58771;BME280;44539;42.962;1.596;2022-09-01T14:02:11;96847.38;;;27.43;51.05
58771;BME280;44539;42.962;1.596;2022-09-01T14:04:37;96836.53;;;27.57;49.83
58771;BME280;44539;42.962;1.596;2022-09-01T14:07:02;96846.31;;;27.82;49.64
58771;BME280;44539;42.962;1.596;2022-09-01T14:09:28;96843.03;;;28.04;49.41
58771;BME280;44539;42.962;1.596;2022-09-01T14:11:54;96831.41;;;27.74;49.38
58771;BME280;44539;42.962;1.596;2022-09-01T14:14:20;96828.09;;;28.34;48.39
58771;BME280;44539;42.962;1.596;2022-09-01T14:16:46;96828.22;;;28.62;47.67
58771;BME280;44539;42.962;1.596;2022-09-01T14:19:11;96827.47;;;28.04;48.06
58771;BME280;44539;42.962;1.596;2022-09-01T14:21:37;96827.66;;;28.79;47.75
58771;BME280;44539;42.962;1.596;2022-09-01T14:24:04;96829.72;;;29.15;47.09
58771;BME280;44539;42.962;1.596;2022-09-01T14:26:29;96822.13;;;29.39;45.97
58771;BME280;44539;42.962;1.596;2022-09-01T14:28:55;96817.75;;;29.80;45.96
58771;BME280;44539;42.962;1.596;2022-09-01T14:31:21;96811.38;;;29.57;44.65
58771;BME280;44539;42.962;1.596;2022-09-01T14:33:46;96811.50;;;30.02;44.63
58771;BME280;44539;42.962;1.596;2022-09-01T14:36:20;96811.78;;;29.50;44.74
58771;BME280;44539;42.962;1.596;2022-09-01T14:38:47;96806.28;;;29.78;44.53
58771;BME280;44539;42.962;1.596;2022-09-01T14:41:14;96793.81;;;29.85;44.24
58771;BME280;44539;42.962;1.596;2022-09-01T14:43:40;96802.47;;;29.51;44.82
58771;BME280;44539;42.962;1.596;2022-09-01T14:46:08;96799.47;;;30.48;43.28
58771;BME280;44539;42.962;1.596;2022-09-01T14:48:36;96801.59;;;30.82;42.46
58771;BME280;44539;42.962;1.596;2022-09-01T14:51:02;96798.78;;;31.45;40.63
58771;BME280;44539;42.962;1.596;2022-09-01T14:53:29;96793.88;;;31.73;39.63
58771;BME280;44539;42.962;1.596;2022-09-01T14:55:59;96789.19;;;31.91;40.00
58771;BME280;44539;42.962;1.596;2022-09-01T14:58:25;96798.72;;;31.93;39.47
58771;BME280;44539;42.962;1.596;2022-09-01T15:00:52;96789.03;;;32.05;38.63
58771;BME280;44539;42.962;1.596;2022-09-01T15:03:19;96787.25;;;32.35;38.09
58771;BME280;44539;42.962;1.596;2022-09-01T15:05:45;96787.91;;;32.14;38.34
58771;BME280;44539;42.962;1.596;2022-09-01T15:08:11;96776.41;;;32.39;38.13
58771;BME280;44539;42.962;1.596;2022-09-01T15:10:36;96790.91;;;31.52;39.04
58771;BME280;44539;42.962;1.596;2022-09-01T15:13:03;96796.25;;;31.74;39.08
58771;BME280;44539;42.962;1.596;2022-09-01T15:15:28;96797.94;;;32.10;38.43
58771;BME280;44539;42.962;1.596;2022-09-01T15:17:55;96781.56;;;32.58;37.66
58771;BME280;44539;42.962;1.596;2022-09-01T15:20:21;96780.22;;;32.72;37.48
58771;BME280;44539;42.962;1.596;2022-09-01T15:23:05;96779.47;;;32.46;37.23
58771;BME280;44539;42.962;1.596;2022-09-01T15:25:31;96782.22;;;32.46;38.06
58771;BME280;44539;42.962;1.596;2022-09-01T15:27:57;96791.84;;;32.87;37.41
58771;BME280;44539;42.962;1.596;2022-09-01T15:30:22;96784.53;;;32.91;37.64
58771;BME280;44539;42.962;1.596;2022-09-01T15:32:50;96788.72;;;32.97;37.78
58771;BME280;44539;42.962;1.596;2022-09-01T15:35:17;96798.38;;;33.21;36.46
58771;BME280;44539;42.962;1.596;2022-09-01T15:37:45;96784.78;;;32.68;37.18
58771;BME280;44539;42.962;1.596;2022-09-01T15:40:11;96792.56;;;33.13;35.63
58771;BME280;44539;42.962;1.596;2022-09-01T15:42:37;96796.63;;;32.99;34.97
58771;BME280;44539;42.962;1.596;2022-09-01T15:45:05;96792.59;;;32.14;36.80
58771;BME280;44539;42.962;1.596;2022-09-01T15:47:31;96793.19;;;32.72;36.10
58771;BME280;44539;42.962;1.596;2022-09-01T15:49:56;96790.13;;;33.21;35.82
58771;BME280;44539;42.962;1.596;2022-09-01T15:52:22;96790.88;;;33.60;35.44
58771;BME280;44539;42.962;1.596;2022-09-01T15:54:48;96787.75;;;33.91;34.71
58771;BME280;44539;42.962;1.596;2022-09-01T15:57:13;96791.25;;;33.49;34.35
58771;BME280;44539;42.962;1.596;2022-09-01T15:59:39;96788.44;;;33.28;35.46
58771;BME280;44539;42.962;1.596;2022-09-01T16:02:08;96796.69;;;33.58;35.31
58771;BME280;44539;42.962;1.596;2022-09-01T16:04:34;96788.97;;;32.74;35.98
58771;BME280;44539;42.962;1.596;2022-09-01T16:07:01;96790.97;;;33.04;35.66
58771;BME280;44539;42.962;1.596;2022-09-01T16:09:26;96788.03;;;32.44;37.05
58771;BME280;44539;42.962;1.596;2022-09-01T16:11:52;96784.88;;;33.28;35.84
58771;BME280;44539;42.962;1.596;2022-09-01T16:14:18;96792.19;;;33.53;35.84
58771;BME280;44539;42.962;1.596;2022-09-01T16:17:14;96781.09;;;33.92;34.91
58771;BME280;44539;42.962;1.596;2022-09-01T16:19:53;96774.81;;;32.93;36.66
58771;BME280;44539;42.962;1.596;2022-09-01T16:22:24;96785.84;;;33.62;35.27
58771;BME280;44539;42.962;1.596;2022-09-01T16:24:53;96777.19;;;33.72;35.34
58771;BME280;44539;42.962;1.596;2022-09-01T16:27:30;96773.16;;;34.11;34.28
58771;BME280;44539;42.962;1.596;2022-09-01T16:30:18;96775.91;;;34.32;33.43
58771;BME280;44539;42.962;1.596;2022-09-01T16:32:46;96771.97;;;34.21;33.75
58771;BME280;44539;42.962;1.596;2022-09-01T16:35:13;96771.25;;;34.45;34.29
58771;BME280;44539;42.962;1.596;2022-09-01T16:37:43;96768.50;;;34.12;34.27
58771;BME280;44539;42.962;1.596;2022-09-01T16:43:05;96763.75;;;34.33;34.04
58771;BME280;44539;42.962;1.596;2022-09-01T16:56:17;96785.28;;;31.83;38.35
